Time;durP1;ratioP1;P1;durP2;ratioP2;P2;SDS_P1;SDS_P2;PMS_P1;PMS_P2;Temp;Humidity;BMP_temperature;BMP_pressure;BME280_temperature;BME280_humidity;BME280_pressure;Samples;Min_cycle;Max_cycle;Signal;HPM_P1;HPM_P2
2021/03/17 00:01:34;;;;;;;8.25;1.83;;;22.20;65.00;;;;;;5096343;28;20020;-80
2021/03/17 00:04:00;;;;;;;4.70;1.77;;;22.10;65.00;;;;;;5102003;28;20108;-78
2021/03/17 00:06:26;;;;;;;3.17;0.90;;;22.20;65.00;;;;;;5092681;28;20082;-73
2021/03/17 00:08:53;;;;;;;2.53;0.70;;;22.10;65.00;;;;;;5095787;28;20059;-74
2021/03/17 00:11:20;;;;;;;2.10;0.80;;;22.10;65.00;;;;;;5092732;28;20016;-75
2021/03/17 00:13:47;;;;;;;2.25;0.98;;;22.10;65.20;;;;;;5091509;28;20040;-74
2021/03/17 00:16:13;;;;;;;4.07;1.00;;;22.10;65.30;;;;;;5098214;28;20525;-75
2021/03/17 00:18:40;;;;;;;2.05;0.80;;;22.10;65.40;;;;;;5097792;28;20102;-73
2021/03/17 00:21:06;;;;;;;2.10;1.20;;;22.10;65.30;;;;;;5096799;28;20011;-73
2021/03/17 00:23:33;;;;;;;4.28;1.13;;;22.10;65.30;;;;;;5094859;28;20032;-73
2021/03/17 00:25:59;;;;;;;5.22;0.77;;;22.10;65.20;;;;;;5094738;28;20026;-76
2021/03/17 00:28:26;;;;;;;3.25;1.33;;;22.10;65.40;;;;;;5093185;28;20042;-75
2021/03/17 00:30:52;;;;;;;6.25;1.45;;;22.10;65.50;;;;;;5100657;28;20040;-74
2021/03/17 00:33:19;;;;;;;3.00;1.45;;;22.10;65.70;;;;;;5091453;28;20036;-78
2021/03/17 00:35:47;;;;;;;5.15;1.65;;;22.00;65.90;;;;;;5087400;28;20028;-79
2021/03/17 00:38:13;;;;;;;6.35;1.55;;;22.00;66.00;;;;;;5093082;28;20031;-75
2021/03/17 00:40:40;;;;;;;3.40;1.10;;;22.00;66.10;;;;;;5100128;28;20008;-75
2021/03/17 00:43:06;;;;;;;3.58;1.35;;;22.00;66.20;;;;;;5098803;28;20024;-74
2021/03/17 00:45:33;;;;;;;5.05;1.10;;;22.00;66.30;;;;;;5096405;28;20028;-74
2021/03/17 00:47:59;;;;;;;3.10;1.10;;;21.90;66.40;;;;;;5099888;28;20012;-73
2021/03/17 00:50:26;;;;;;;2.60;1.77;;;22.00;66.40;;;;;;5098405;28;20090;-74
2021/03/17 00:52:53;;;;;;;2.03;0.80;;;21.90;66.40;;;;;;5091863;28;20023;-74
2021/03/17 00:55:19;;;;;;;3.42;1.30;;;21.90;66.40;;;;;;5093574;28;20031;-74
2021/03/17 00:57:46;;;;;;;2.53;0.60;;;21.90;66.50;;;;;;5096753;28;20020;-77
2021/03/17 01:00:14;;;;;;;2.28;0.90;;;21.90;66.40;;;;;;5079835;28;20026;-77
2021/03/17 01:02:40;;;;;;;2.38;0.73;;;21.90;66.40;;;;;;5093741;28;20531;-77
2021/03/17 01:05:08;;;;;;;4.57;1.00;;;21.90;66.50;;;;;;5091966;28;20028;-73
2021/03/17 01:07:35;;;;;;;3.50;1.15;;;21.90;66.50;;;;;;5097067;28;20054;-73
2021/03/17 01:10:13;;;;;;;5.13;1.50;;;21.90;66.70;;;;;;5076681;28;20084;-76
2021/03/17 01:12:41;;;;;;;3.90;2.85;;;21.90;66.70;;;;;;5098990;28;20016;-78
2021/03/17 01:15:12;;;;;;;4.72;2.38;;;21.90;66.70;;;;;;5098519;28;20012;-77
2021/03/17 01:17:40;;;;;;;3.38;2.13;;;21.90;66.70;;;;;;5096453;28;20399;-77
2021/03/17 01:20:07;;;;;;;4.40;1.75;;;21.90;66.80;;;;;;5098381;28;20031;-74
2021/03/17 01:22:35;;;;;;;5.55;1.55;;;21.90;66.90;;;;;;5103082;28;20012;-77
2021/03/17 01:25:01;;;;;;;6.80;1.92;;;21.90;67.00;;;;;;5094012;28;20535;-73
2021/03/17 01:27:28;;;;;;;6.00;1.63;;;21.90;67.10;;;;;;5091763;28;20026;-77
2021/03/17 01:29:56;;;;;;;4.18;1.73;;;21.90;67.90;;;;;;5095263;28;20081;-78
2021/03/17 01:32:22;;;;;;;4.93;1.23;;;21.90;67.30;;;;;;5100088;28;20413;-73
2021/03/17 01:34:48;;;;;;;5.90;1.38;;;21.90;67.30;;;;;;5074691;28;20035;-74
2021/03/17 01:37:15;;;;;;;4.85;1.00;;;21.90;67.60;;;;;;5095686;28;20024;-74
2021/03/17 01:39:41;;;;;;;8.13;1.60;;;21.90;67.60;;;;;;5097693;28;20024;-79
2021/03/17 01:42:08;;;;;;;7.53;2.47;;;21.80;67.60;;;;;;5095848;28;20039;-74
2021/03/17 01:44:35;;;;;;;6.78;1.63;;;21.80;67.70;;;;;;5099067;28;20024;-75
2021/03/17 01:47:01;;;;;;;9.18;2.10;;;21.80;67.90;;;;;;5095987;28;20170;-74
2021/03/17 01:49:27;;;;;;;3.40;1.10;;;21.80;68.00;;;;;;5093843;28;20023;-76
2021/03/17 01:51:54;;;;;;;7.93;1.65;;;21.80;68.10;;;;;;5098290;28;20589;-75
2021/03/17 01:54:21;;;;;;;3.47;1.02;;;21.80;68.20;;;;;;5100480;28;20032;-73
2021/03/17 01:56:47;;;;;;;6.55;1.17;;;21.80;68.40;;;;;;5099318;28;20020;-79
2021/03/17 01:59:14;;;;;;;8.82;1.63;;;21.70;68.40;;;;;;5097800;28;20043;-76
2021/03/17 02:01:41;;;;;;;4.60;1.17;;;21.70;68.50;;;;;;5099917;28;20022;-74
2021/03/17 02:04:07;;;;;;;3.47;1.60;;;21.70;68.70;;;;;;5095385;28;20384;-78
2021/03/17 02:06:34;;;;;;;3.97;1.08;;;21.70;68.80;;;;;;5093078;28;20043;-75
2021/03/17 02:09:01;;;;;;;3.33;0.95;;;21.70;68.80;;;;;;5095872;28;20046;-74
2021/03/17 02:11:28;;;;;;;5.13;1.13;;;21.70;68.90;;;;;;5095772;28;20055;-77
2021/03/17 02:13:58;;;;;;;5.25;1.50;;;21.70;68.90;;;;;;5098085;28;20537;-74
2021/03/17 02:16:50;;;;;;;2.22;1.33;;;21.70;69.50;;;;;;5090880;28;20027;-73
2021/03/17 02:19:49;;;;;;;3.55;1.60;;;21.70;68.80;;;;;;5070128;28;20071;-77
2021/03/17 02:23:03;;;;;;;4.00;1.35;;;21.70;68.90;;;;;;5101037;28;20030;-79
2021/03/17 02:25:40;;;;;;;4.72;1.23;;;21.70;68.90;;;;;;5077821;28;20043;-81
2021/03/17 02:35:11;;;;;;;6.07;1.73;;;21.70;69.60;;;;;;4977898;28;20089;-80
2021/03/17 02:37:45;;;;;;;6.00;1.50;;;21.60;69.80;;;;;;5086266;28;20008;-79
2021/03/17 02:40:22;;;;;;;6.17;1.10;;;21.60;70.00;;;;;;5101083;28;20098;-79
2021/03/17 02:43:21;;;;;;;3.17;1.33;;;21.60;70.00;;;;;;5090795;28;20463;-79
2021/03/17 02:45:57;;;;;;;4.80;1.70;;;21.60;70.20;;;;;;5065306;28;20051;-75
2021/03/17 02:48:31;;;;;;;8.30;1.40;;;21.60;70.30;;;;;;5070409;28;20062;-77
2021/03/17 02:51:04;;;;;;;5.55;1.67;;;21.60;70.40;;;;;;5068300;28;20165;-74
2021/03/17 02:53:33;;;;;;;4.05;1.52;;;21.60;70.50;;;;;;5093301;28;20034;-74
2021/03/17 02:56:13;;;;;;;6.07;1.30;;;21.60;70.50;;;;;;5092133;28;20026;-77
2021/03/17 02:58:47;;;;;;;2.25;1.42;;;21.60;70.60;;;;;;5099077;28;20030;-76
2021/03/17 03:01:17;;;;;;;3.75;1.30;;;21.50;70.60;;;;;;5090510;28;20031;-78
2021/03/17 03:03:46;;;;;;;6.88;1.83;;;21.50;70.80;;;;;;5097802;28;20567;-73
2021/03/17 03:06:13;;;;;;;8.13;1.60;;;21.50;70.90;;;;;;5078832;28;20032;-78
2021/03/17 03:08:42;;;;;;;3.65;1.30;;;21.50;71.00;;;;;;5097403;28;20115;-74
2021/03/17 03:11:12;;;;;;;5.82;1.40;;;21.50;71.00;;;;;;5091762;28;20021;-77
2021/03/17 03:13:39;;;;;;;5.45;1.70;;;21.50;71.00;;;;;;5093955;28;20052;-74
2021/03/17 03:16:07;;;;;;;8.32;1.40;;;21.50;71.70;;;;;;5096502;28;20544;-74
2021/03/17 03:18:35;;;;;;;5.80;1.50;;;21.50;71.10;;;;;;5075878;28;20059;-74
2021/03/17 03:21:02;;;;;;;5.47;1.10;;;21.50;71.10;;;;;;5100352;28;20022;-76
2021/03/17 03:23:30;;;;;;;6.90;1.15;;;21.50;71.10;;;;;;5093712;28;20379;-74
2021/03/17 03:25:57;;;;;;;4.85;0.98;;;21.50;71.30;;;;;;5087940;28;20028;-73
2021/03/17 03:28:24;;;;;;;6.53;1.50;;;21.50;71.20;;;;;;5101096;28;20016;-76
2021/03/17 03:30:54;;;;;;;6.90;1.63;;;21.50;71.20;;;;;;5096761;28;20051;-76
2021/03/17 03:33:21;;;;;;;5.85;1.55;;;21.40;71.10;;;;;;5083328;28;20382;-73
2021/03/17 03:35:49;;;;;;;3.58;1.02;;;21.40;71.10;;;;;;5093531;28;20024;-77
2021/03/17 03:38:17;;;;;;;6.60;1.25;;;21.50;71.30;;;;;;5095246;28;20060;-74
2021/03/17 03:40:44;;;;;;;7.18;2.22;;;21.50;71.50;;;;;;5096090;28;20020;-78
2021/03/17 03:43:12;;;;;;;6.00;1.27;;;21.40;71.50;;;;;;5095464;28;20378;-74
2021/03/17 03:45:40;;;;;;;2.97;1.35;;;21.40;71.70;;;;;;5093879;28;20039;-74
2021/03/17 03:48:08;;;;;;;4.93;1.25;;;21.40;71.80;;;;;;5091437;28;20098;-74
2021/03/17 03:50:43;;;;;;;4.90;1.48;;;21.40;71.90;;;;;;5093148;28;20081;-74
2021/03/17 03:53:49;;;;;;;5.50;1.95;;;21.40;72.00;;;;;;5096444;28;20043;-74
2021/03/17 03:56:17;;;;;;;;;;;21.40;72.20;;;;;;5095653;28;20039;-75
2021/03/17 03:59:00;;;;;;;5.03;1.60;;;21.40;72.30;;;;;;5095041;28;19911;-75
2021/03/17 04:01:37;;;;;;;5.32;1.73;;;21.40;72.30;;;;;;5096891;28;20056;-77
2021/03/17 04:04:09;;;;;;;6.60;2.30;;;21.40;72.30;;;;;;5106333;27;20462;-77
2021/03/17 04:06:36;;;;;;;4.47;1.50;;;21.40;72.40;;;;;;5098984;28;20058;-75
2021/03/17 04:09:04;;;;;;;7.78;2.10;;;21.40;72.40;;;;;;5094076;28;20127;-79
2021/03/17 04:11:31;;;;;;;10.43;1.98;;;21.40;72.50;;;;;;5095439;28;20035;-72
2021/03/17 04:14:02;;;;;;;6.28;4.18;;;21.40;72.60;;;;;;5095672;28;20016;-78
2021/03/17 04:17:08;;;;;;;15.02;9.90;;;21.30;72.60;;;;;;5092737;28;20494;-72
2021/03/17 04:20:26;;;;;;;14.10;9.18;;;21.30;72.70;;;;;;5068748;28;20020;-75
2021/03/17 04:23:32;;;;;;;9.23;5.85;;;21.30;73.20;;;;;;5089538;28;20020;-74
2021/03/17 04:26:38;;;;;;;10.43;5.65;;;21.30;72.70;;;;;;5081667;28;20458;-74
2021/03/17 04:29:06;;;;;;;8.35;4.30;;;21.30;72.60;;;;;;5089899;28;20040;-74
2021/03/17 04:31:34;;;;;;;7.80;3.20;;;21.30;72.60;;;;;;5087547;28;20040;-79
2021/03/17 04:34:01;;;;;;;14.60;9.07;;;21.30;72.60;;;;;;5085598;28;20476;-74
2021/03/17 04:36:28;;;;;;;15.35;12.93;;;21.30;72.60;;;;;;5086941;28;20027;-74
2021/03/17 04:38:56;;;;;;;16.27;12.27;;;21.30;72.60;;;;;;5089102;28;20403;-74
2021/03/17 04:41:24;;;;;;;13.65;7.60;;;21.30;72.60;;;;;;5081626;28;20032;-75
2021/03/17 04:43:52;;;;;;;10.25;5.80;;;21.30;72.60;;;;;;5080549;28;20015;-75
2021/03/17 04:46:20;;;;;;;9.45;5.18;;;21.30;72.50;;;;;;5068400;28;20017;-75
2021/03/17 04:48:46;;;;;;;6.90;3.63;;;21.20;72.50;;;;;;5099571;28;20016;-76
2021/03/17 04:51:16;;;;;;;8.45;3.60;;;21.20;72.40;;;;;;5093101;28;20024;-75
2021/03/17 04:53:43;;;;;;;8.18;3.92;;;21.20;72.40;;;;;;5102572;28;20026;-75
2021/03/17 04:56:11;;;;;;;5.70;2.60;;;21.20;72.40;;;;;;5096064;28;20062;-74
2021/03/17 04:58:39;;;;;;;8.70;2.40;;;21.20;72.40;;;;;;5100687;28;20094;-76
2021/03/17 05:01:14;;;;;;;4.18;2.00;;;21.20;72.40;;;;;;5096278;28;20067;-73
2021/03/17 05:03:42;;;;;;;7.15;2.45;;;21.20;72.40;;;;;;5100927;28;20026;-73
2021/03/17 05:06:10;;;;;;;7.15;1.98;;;21.20;72.40;;;;;;5096169;28;20058;-73
2021/03/17 05:08:42;;;;;;;3.63;1.70;;;21.20;72.50;;;;;;5100252;28;20554;-73
2021/03/17 05:11:09;;;;;;;3.88;1.92;;;21.20;72.50;;;;;;5098395;28;20016;-76
2021/03/17 05:13:37;;;;;;;4.20;1.60;;;21.10;72.60;;;;;;5098749;28;20027;-75
2021/03/17 05:16:06;;;;;;;7.60;2.10;;;21.20;72.70;;;;;;5104049;28;20023;-73
2021/03/17 05:18:34;;;;;;;6.82;1.95;;;21.20;72.80;;;;;;5102320;28;20047;-73
2021/03/17 05:21:02;;;;;;;7.45;2.05;;;21.10;72.90;;;;;;5063874;28;20402;-73
2021/03/17 05:23:29;;;;;;;6.68;1.70;;;21.20;73.00;;;;;;5099625;28;20031;-76
2021/03/17 05:25:58;;;;;;;7.35;2.50;;;21.10;73.00;;;;;;5097303;28;20451;-73
2021/03/17 05:28:25;;;;;;;5.28;1.90;;;21.10;73.20;;;;;;5101820;28;20012;-72
2021/03/17 05:30:54;;;;;;;7.90;2.63;;;21.10;73.10;;;;;;5100167;28;20050;-73
2021/03/17 05:33:26;;;;;;;8.48;2.03;;;21.20;73.30;;;;;;5079405;28;20024;-73
2021/03/17 05:35:54;;;;;;;7.75;2.30;;;21.10;73.30;;;;;;5094920;28;20060;-73
2021/03/17 05:38:21;;;;;;;6.05;1.63;;;21.10;73.30;;;;;;5097782;28;20016;-77
2021/03/17 05:40:52;;;;;;;9.60;3.05;;;21.20;73.40;;;;;;5098422;28;20501;-75
2021/03/17 05:43:22;;;;;;;5.28;2.13;;;21.20;73.50;;;;;;5097990;28;20028;-76
2021/03/17 05:46:28;;;;;;;4.00;1.50;;;21.10;73.50;;;;;;5074726;28;21566;-73
2021/03/17 05:49:34;;;;;;;6.25;1.55;;;21.10;73.50;;;;;;5099993;28;20031;-72
2021/03/17 05:52:40;;;;;;;4.57;1.95;;;21.10;73.40;;;;;;5097062;28;20024;-73
2021/03/17 05:55:46;;;;;;;9.45;2.08;;;21.20;73.40;;;;;;5096136;28;20424;-73
2021/03/17 05:58:52;;;;;;;4.45;1.48;;;21.10;73.20;;;;;;5098977;28;20035;-75
2021/03/17 06:01:58;;;;;;;4.93;1.42;;;21.20;73.20;;;;;;5074126;28;20025;-76
2021/03/17 06:05:05;;;;;;;5.03;1.75;;;21.10;72.90;;;;;;5091782;28;20051;-75
2021/03/17 06:07:51;;;;;;;3.53;1.23;;;21.20;72.70;;;;;;5070053;28;20152;-73
2021/03/17 06:10:57;;;;;;;5.75;1.85;;;21.10;72.50;;;;;;5094738;28;20036;-73
2021/03/17 06:14:06;;;;;;;5.22;1.40;;;21.10;72.50;;;;;;5094345;28;20026;-74
2021/03/17 06:17:14;;;;;;;5.55;1.75;;;21.20;72.40;;;;;;5070833;28;20028;-74
2021/03/17 06:20:26;;;;;;;3.63;1.35;;;21.20;72.20;;;;;;5096251;28;20016;-73
2021/03/17 06:23:32;;;;;;;5.80;1.13;;;21.20;72.00;;;;;;5095433;28;20103;-75
2021/03/17 06:26:39;;;;;;;3.67;1.92;;;21.20;72.00;;;;;;5092626;28;20095;-73
2021/03/17 06:29:45;;;;;;;2.88;1.20;;;21.20;71.90;;;;;;5099424;28;20035;-75
2021/03/17 06:32:51;;;;;;;3.90;1.75;;;21.20;71.70;;;;;;5096340;28;20360;-75
2021/03/17 06:35:40;;;;;;;2.17;1.75;;;21.30;71.70;;;;;;5102589;28;20024;-73
2021/03/17 06:38:46;;;;;;;4.85;1.63;;;21.30;71.70;;;;;;5096580;28;20060;-74
2021/03/17 06:42:04;;;;;;;5.53;1.88;;;21.30;71.80;;;;;;5094472;28;20548;-74
2021/03/17 06:45:16;;;;;;;6.55;2.47;;;21.30;71.70;;;;;;5096740;28;20032;-76
2021/03/17 06:48:21;;;;;;;4.93;2.80;;;21.40;71.70;;;;;;5093158;28;20077;-74
2021/03/17 06:51:33;;;;;;;4.78;2.20;;;21.40;71.80;;;;;;5066668;28;20764;-74
2021/03/17 06:54:39;;;;;;;5.32;2.28;;;21.40;71.70;;;;;;5096621;28;20043;-76
2021/03/17 06:57:45;;;;;;;6.18;2.45;;;21.50;71.70;;;;;;5090824;28;20382;-75
2021/03/17 07:00:21;;;;;;;5.63;2.88;;;21.50;71.70;;;;;;5099983;28;20422;-77
2021/03/17 07:03:45;;;;;;;6.00;1.85;;;21.50;71.60;;;;;;5081468;28;20028;-73
2021/03/17 07:06:51;;;;;;;3.78;1.52;;;21.60;71.50;;;;;;5095087;28;20095;-74
2021/03/17 07:10:01;;;;;;;6.72;1.48;;;21.70;71.40;;;;;;5075768;28;20040;-73
2021/03/17 07:13:07;;;;;;;8.70;1.60;;;21.70;71.20;;;;;;5098424;28;20033;-74
2021/03/17 07:16:13;;;;;;;7.60;2.17;;;21.70;71.10;;;;;;5094427;28;20024;-76
2021/03/17 07:19:19;;;;;;;1.20;1.10;;;21.80;71.00;;;;;;5095704;28;20042;-74
2021/03/17 07:22:05;;;;;;;3.83;1.23;;;21.80;70.90;;;;;;5099242;28;20449;-74
2021/03/17 07:25:14;;;;;;;3.83;1.40;;;21.80;70.90;;;;;;5092890;28;20023;-77
2021/03/17 07:28:20;;;;;;;3.80;1.13;;;21.90;70.70;;;;;;5095207;28;20042;-75
2021/03/17 07:31:26;;;;;;;4.13;1.23;;;21.90;70.60;;;;;;5067172;28;20078;-74
2021/03/17 07:34:44;;;;;;;3.20;1.30;;;22.00;70.60;;;;;;5089237;28;20032;-75
2021/03/17 07:37:50;;;;;;;2.60;1.20;;;22.00;70.40;;;;;;5093995;28;20020;-75
2021/03/17 07:40:56;;;;;;;6.03;1.20;;;22.10;70.30;;;;;;5090433;28;20076;-75
2021/03/17 07:44:02;;;;;;;3.70;1.50;;;22.10;70.20;;;;;;5092463;28;20058;-75
2021/03/17 07:47:09;;;;;;;1.60;1.05;;;22.10;69.50;;;;;;5092445;28;20024;-75
2021/03/17 07:50:15;;;;;;;3.22;1.70;;;22.20;68.60;;;;;;5097389;28;20587;-74
2021/03/17 07:53:21;;;;;;;4.10;2.22;;;22.30;67.60;;;;;;5096372;28;20069;-75
2021/03/17 07:56:27;;;;;;;6.90;3.70;;;22.30;66.80;;;;;;5077049;28;20474;-73
2021/03/17 07:59:33;;;;;;;7.72;4.53;;;22.30;66.10;;;;;;5093519;28;20077;-74
2021/03/17 08:02:39;;;;;;;7.85;4.38;;;22.40;65.60;;;;;;5094666;28;20023;-75
2021/03/17 08:05:45;;;;;;;9.13;3.92;;;22.40;65.30;;;;;;5095455;28;20027;-75
2021/03/17 08:08:51;;;;;;;6.57;3.83;;;22.50;65.20;;;;;;5096203;28;20093;-74
2021/03/17 08:11:57;;;;;;;6.85;4.53;;;22.50;65.30;;;;;;5099155;28;20031;-75
2021/03/17 08:15:03;;;;;;;5.10;2.72;;;22.60;65.40;;;;;;5096061;28;20487;-77
2021/03/17 08:18:12;;;;;;;4.20;2.03;;;22.60;65.20;;;;;;5092459;28;20016;-74
2021/03/17 08:21:18;;;;;;;6.07;1.98;;;22.70;65.20;;;;;;5093093;28;20589;-77
2021/03/17 08:24:27;;;;;;;7.13;2.08;;;22.70;65.10;;;;;;5096339;28;20028;-75
2021/03/17 08:27:36;;;;;;;3.53;1.10;;;22.80;65.10;;;;;;5094205;28;20031;-75
2021/03/17 08:30:46;;;;;;;5.45;1.55;;;22.90;64.90;;;;;;5072429;28;20040;-75
2021/03/17 08:33:52;;;;;;;2.67;1.02;;;23.00;64.70;;;;;;5094444;28;20181;-74
2021/03/17 08:37:00;;;;;;;4.07;1.27;;;23.00;64.40;;;;;;5091771;28;20020;-75
2021/03/17 08:39:31;;;;;;;3.33;1.25;;;23.10;64.00;;;;;;5095925;28;20028;-75
2021/03/17 08:42:46;;;;;;;5.40;1.45;;;23.20;64.10;;;;;;5092596;28;20032;-76
2021/03/17 08:45:56;;;;;;;3.05;1.27;;;23.20;64.40;;;;;;5096827;28;20028;-76
2021/03/17 08:49:13;;;;;;;5.30;1.42;;;23.30;64.50;;;;;;5082447;28;20030;-75
2021/03/17 08:51:46;;;;;;;2.85;1.10;;;23.30;64.40;;;;;;5051531;28;20047;-78
2021/03/17 08:54:37;;;;;;;1.70;0.90;;;23.40;64.20;;;;;;5098506;28;20437;-74
2021/03/17 08:57:46;;;;;;;4.38;1.27;;;23.50;64.00;;;;;;5051649;28;20043;-75
2021/03/17 09:00:41;;;;;;;4.03;1.05;;;23.50;63.70;;;;;;5094437;28;20020;-75
2021/03/17 09:03:36;;;;;;;3.47;1.00;;;23.60;63.20;;;;;;5094644;28;20075;-75
2021/03/17 09:06:51;;;;;;;2.35;0.90;;;23.70;63.00;;;;;;5091170;28;20107;-75
2021/03/17 09:10:06;;;;;;;2.55;0.90;;;23.70;62.70;;;;;;5100880;28;20021;-76
2021/03/17 09:12:33;;;;;;;2.30;1.05;;;23.80;62.50;;;;;;5096035;28;20020;-75
2021/03/17 09:15:12;;;;;;;4.45;1.15;;;23.90;62.20;;;;;;5095827;28;20403;-75
2021/03/17 09:18:18;;;;;;;2.08;1.10;;;24.00;62.00;;;;;;5070192;28;20024;-78
2021/03/17 09:21:24;;;;;;;2.20;0.95;;;24.00;61.90;;;;;;5097767;28;20024;-77
2021/03/17 09:24:28;;;;;;;3.33;0.73;;;24.10;61.50;;;;;;5094327;28;20107;-78
2021/03/17 09:27:44;;;;;;;2.67;1.00;;;24.20;61.20;;;;;;5099095;28;20023;-78
2021/03/17 09:30:53;;;;;;;6.00;1.63;;;24.30;60.70;;;;;;5101540;28;20542;-75
2021/03/17 09:33:48;;;;;;;3.03;0.90;;;24.30;60.50;;;;;;5095642;28;20027;-78
2021/03/17 09:36:54;;;;;;;3.25;1.63;;;24.40;60.20;;;;;;5096183;28;20081;-76
2021/03/17 09:40:06;;;;;;;3.83;1.55;;;24.60;59.70;;;;;;5093893;28;20031;-77
2021/03/17 09:43:15;;;;;;;2.10;1.30;;;24.60;59.40;;;;;;5093304;28;20158;-77
2021/03/17 09:46:42;;;;;;;4.88;1.95;;;24.70;59.20;;;;;;5097583;28;20016;-76
2021/03/17 09:49:12;;;;;;;3.53;1.75;;;24.80;59.10;;;;;;5095289;28;20035;-75
2021/03/17 09:51:58;;;;;;;4.10;1.92;;;24.90;58.50;;;;;;5094408;28;20017;-78
2021/03/17 09:55:05;;;;;;;4.75;2.55;;;25.00;58.20;;;;;;5101412;28;20533;-76
2021/03/17 09:58:17;;;;;;;2.95;1.85;;;25.10;57.70;;;;;;5093894;28;20016;-76
2021/03/17 10:01:23;;;;;;;4.00;1.92;;;25.20;57.50;;;;;;5091342;28;20031;-76
2021/03/17 10:04:08;;;;;;;;;;;25.30;57.80;;;;;;5094532;28;20031;-75
2021/03/17 10:07:17;;;;;;;3.30;1.48;;;25.30;58.00;;;;;;5100157;28;19918;-76
2021/03/17 10:10:24;;;;;;;2.60;1.38;;;25.40;57.90;;;;;;5094392;28;20044;-76
2021/03/17 10:13:30;;;;;;;5.43;1.77;;;25.50;57.30;;;;;;5095599;28;20030;-76
2021/03/17 10:16:16;;;;;;;;;;;25.60;56.70;;;;;;5093937;28;20076;-76
2021/03/17 10:19:22;;;;;;;7.30;1.48;;;25.60;57.40;;;;;;5092120;28;19903;-76
2021/03/17 10:22:08;;;;;;;;;;;25.70;57.00;;;;;;5097956;28;20008;-76
2021/03/17 10:24:54;;;;;;;5.40;1.50;;;25.80;56.90;;;;;;5101145;28;19949;-76
2021/03/17 10:28:04;;;;;;;3.72;1.38;;;25.80;56.80;;;;;;5095724;28;20074;-75
2021/03/17 10:31:10;;;;;;;2.75;1.33;;;25.90;56.80;;;;;;5093817;28;20055;-77
2021/03/17 10:33:56;;;;;;;;;;;26.00;56.50;;;;;;5097050;28;20047;-77
2021/03/17 10:37:02;;;;;;;7.85;1.73;;;26.10;56.50;;;;;;5094828;28;19904;-76
2021/03/17 10:39:48;;;;;;;;;;;26.10;56.30;;;;;;5093116;28;20099;-75
2021/03/17 10:43:06;;;;;;;6.63;1.65;;;26.10;56.00;;;;;;5094293;28;19931;-76
2021/03/17 10:46:13;;;;;;;3.67;1.45;;;26.20;56.00;;;;;;5092304;28;20074;-76
2021/03/17 10:49:19;;;;;;;6.15;1.38;;;26.30;56.00;;;;;;5077558;28;20552;-76
2021/03/17 10:52:05;;;;;;;;;;;26.30;55.70;;;;;;5093325;28;20054;-76
2021/03/17 10:55:00;;;;;;;2.90;1.40;;;26.40;55.70;;;;;;5075578;28;20331;-75
2021/03/17 10:58:06;;;;;;;2.70;1.30;;;26.40;55.40;;;;;;5092382;28;20106;-76
2021/03/17 11:00:52;;;;;;;;;;;26.50;55.30;;;;;;5064861;28;20498;-75
2021/03/17 11:03:27;;;;;;;3.97;1.45;;;26.60;55.30;;;;;;5095872;28;20338;-76
2021/03/17 11:06:36;;;;;;;5.20;2.10;;;26.70;55.10;;;;;;5099550;28;20022;-76
2021/03/17 11:09:23;;;;;;;1.60;1.20;;;26.70;54.70;;;;;;5092733;28;20487;-75
2021/03/17 11:12:31;;;;;;;9.20;1.70;;;26.80;54.70;;;;;;5097399;28;20401;-76
2021/03/17 11:15:40;;;;;;;3.38;1.63;;;26.90;54.60;;;;;;5095191;28;20351;-76
2021/03/17 11:18:46;;;;;;;4.82;1.98;;;27.00;54.50;;;;;;5092097;28;20066;-76
2021/03/17 11:21:55;;;;;;;6.13;1.92;;;27.00;54.60;;;;;;5093431;28;20399;-77
2021/03/17 11:25:01;;;;;;;2.15;1.42;;;27.10;54.40;;;;;;5099366;28;20612;-76
2021/03/17 11:28:07;;;;;;;4.53;1.70;;;27.20;54.10;;;;;;5091165;28;20077;-76
2021/03/17 11:31:20;;;;;;;4.50;1.95;;;27.20;54.00;;;;;;5089817;28;20048;-76
2021/03/17 11:34:27;;;;;;;3.33;1.23;;;27.30;54.00;;;;;;5070573;28;20429;-76
2021/03/17 11:37:33;;;;;;;5.88;1.90;;;27.40;54.00;;;;;;5093970;28;20016;-76
2021/03/17 11:40:39;;;;;;;2.58;1.27;;;27.50;53.70;;;;;;5087946;28;20549;-76
2021/03/17 11:43:49;;;;;;;3.90;1.33;;;27.60;53.40;;;;;;5095032;28;20051;-76
2021/03/17 11:46:55;;;;;;;4.13;1.48;;;27.60;53.30;;;;;;5093969;28;20050;-76
2021/03/17 11:50:01;;;;;;;2.03;1.17;;;27.70;53.30;;;;;;5077580;28;20032;-76
2021/03/17 11:53:07;;;;;;;3.78;1.30;;;27.80;53.20;;;;;;5086234;28;20020;-77
2021/03/17 11:56:13;;;;;;;4.35;1.40;;;27.80;53.00;;;;;;5095128;28;20506;-77
2021/03/17 11:59:19;;;;;;;4.80;1.20;;;27.90;52.80;;;;;;5095291;28;20500;-76
2021/03/17 12:02:25;;;;;;;2.90;1.35;;;27.90;52.90;;;;;;5093107;28;20023;-77
2021/03/17 12:05:31;;;;;;;5.45;2.53;;;28.00;52.70;;;;;;5094931;28;20020;-77
2021/03/17 12:08:37;;;;;;;6.03;2.08;;;28.10;52.40;;;;;;5095237;28;20023;-77
2021/03/17 12:11:43;;;;;;;4.57;1.42;;;28.10;52.20;;;;;;5093639;28;20122;-77
2021/03/17 12:14:49;;;;;;;3.15;1.85;;;28.10;52.10;;;;;;5093759;28;20072;-76
2021/03/17 12:17:55;;;;;;;5.28;1.52;;;28.20;51.80;;;;;;5092380;28;20649;-76
2021/03/17 12:21:01;;;;;;;2.83;1.15;;;28.20;51.70;;;;;;5095283;28;20028;-78
2021/03/17 12:24:07;;;;;;;6.95;2.10;;;28.30;51.60;;;;;;5093231;28;20019;-76
2021/03/17 12:27:14;;;;;;;2.72;0.95;;;28.30;51.20;;;;;;5092407;28;20051;-76
2021/03/17 12:30:20;;;;;;;2.30;1.27;;;28.40;51.20;;;;;;5091571;28;20506;-76
2021/03/17 12:33:42;;;;;;;2.67;1.20;;;28.40;51.10;;;;;;5094219;28;20056;-76
2021/03/17 12:36:48;;;;;;;3.53;1.23;;;28.50;51.00;;;;;;5082955;28;20044;-76
2021/03/17 12:39:55;;;;;;;5.70;1.33;;;28.50;51.10;;;;;;5086289;28;20122;-76
2021/03/17 12:43:01;;;;;;;3.78;1.15;;;28.50;50.80;;;;;;5089334;28;20467;-76
2021/03/17 12:46:07;;;;;;;4.68;1.50;;;28.60;50.60;;;;;;5091618;28;20065;-77
2021/03/17 12:49:13;;;;;;;5.50;1.67;;;28.60;50.30;;;;;;5093447;28;20418;-78
2021/03/17 12:52:19;;;;;;;6.15;1.30;;;28.70;50.60;;;;;;5092744;28;20349;-76
2021/03/17 12:55:25;;;;;;;6.47;1.30;;;28.70;51.00;;;;;;5096217;28;20403;-76
2021/03/17 12:58:31;;;;;;;5.97;1.42;;;28.70;51.10;;;;;;5091793;28;20024;-77
2021/03/17 13:01:37;;;;;;;3.97;1.30;;;28.80;51.20;;;;;;5088220;28;20017;-78
2021/03/17 13:04:43;;;;;;;3.15;1.45;;;28.80;51.20;;;;;;5088283;28;20899;-76
2021/03/17 13:07:49;;;;;;;8.35;1.50;;;28.80;51.20;;;;;;5089270;28;20024;-77
2021/03/17 13:10:55;;;;;;;3.78;1.25;;;28.80;51.30;;;;;;5097755;28;20427;-77
2021/03/17 13:14:01;;;;;;;5.68;1.63;;;28.80;51.20;;;;;;5099325;28;20038;-77
2021/03/17 13:17:07;;;;;;;6.85;1.65;;;28.90;51.30;;;;;;5094448;28;20467;-76
2021/03/17 13:20:14;;;;;;;3.47;1.60;;;28.90;51.10;;;;;;5069192;28;20020;-76
2021/03/17 13:23:20;;;;;;;3.20;1.17;;;28.90;50.90;;;;;;5093324;28;20026;-76
2021/03/17 13:26:26;;;;;;;3.78;1.88;;;28.90;50.60;;;;;;5097335;28;20016;-77
2021/03/17 13:29:32;;;;;;;4.38;1.42;;;28.90;50.50;;;;;;5099728;28;20016;-76
2021/03/17 13:32:38;;;;;;;6.25;1.90;;;28.90;50.60;;;;;;5095218;28;20487;-76
2021/03/17 13:35:44;;;;;;;6.07;1.33;;;28.90;50.70;;;;;;5094028;28;20053;-77
2021/03/17 13:38:50;;;;;;;4.20;1.38;;;28.90;50.70;;;;;;5092657;28;20391;-76
2021/03/17 13:41:56;;;;;;;4.85;1.33;;;28.90;50.90;;;;;;5094906;28;20530;-78
2021/03/17 13:45:03;;;;;;;2.40;0.98;;;28.90;51.00;;;;;;5099112;28;20022;-78
2021/03/17 13:48:09;;;;;;;4.75;1.25;;;28.90;51.50;;;;;;5097764;28;20482;-76
2021/03/17 13:51:15;;;;;;;3.72;2.00;;;28.90;50.50;;;;;;5097170;28;20089;-77
2021/03/17 13:54:21;;;;;;;2.75;1.17;;;28.90;50.60;;;;;;5091886;28;20020;-78
2021/03/17 13:57:27;;;;;;;4.45;1.63;;;28.90;50.80;;;;;;5098190;28;20020;-77
2021/03/17 14:00:33;;;;;;;2.80;0.95;;;28.90;50.40;;;;;;5095344;28;20019;-79
2021/03/17 14:03:39;;;;;;;3.80;1.85;;;28.80;50.50;;;;;;5093988;28;20055;-79
2021/03/17 14:06:45;;;;;;;5.90;1.73;;;28.80;50.70;;;;;;5097919;28;20011;-76
2021/03/17 14:09:51;;;;;;;5.10;1.73;;;28.80;51.20;;;;;;5094554;28;20471;-79
2021/03/17 14:12:59;;;;;;;5.38;1.40;;;28.80;51.40;;;;;;5069987;28;20027;-76
2021/03/17 14:16:05;;;;;;;4.85;1.60;;;28.70;51.50;;;;;;5087926;28;20081;-77
2021/03/17 14:18:31;;;;;;;3.92;1.08;;;28.70;51.60;;;;;;5080566;28;20146;-75
2021/03/17 14:20:58;;;;;;;4.10;1.60;;;28.70;51.30;;;;;;5083986;28;20016;-75
2021/03/17 14:23:24;;;;;;;2.63;0.90;;;28.70;51.50;;;;;;5086207;28;20020;-77
2021/03/17 14:25:51;;;;;;;4.50;1.30;;;28.70;51.50;;;;;;5089832;28;20068;-76
2021/03/17 14:28:17;;;;;;;6.95;1.95;;;28.70;51.60;;;;;;5087215;28;20020;-77
2021/03/17 14:30:44;;;;;;;7.57;2.00;;;28.70;51.70;;;;;;5085273;28;20051;-78
2021/03/17 14:33:10;;;;;;;5.28;1.50;;;28.60;51.80;;;;;;5084900;28;20066;-75
2021/03/17 14:35:37;;;;;;;3.95;1.30;;;28.60;52.00;;;;;;5092048;28;20020;-75
2021/03/17 14:38:04;;;;;;;5.28;1.60;;;28.60;52.00;;;;;;5086381;28;20055;-74
2021/03/17 14:40:32;;;;;;;4.75;1.38;;;28.70;51.60;;;;;;5085774;28;20025;-73
2021/03/17 14:42:59;;;;;;;63.33;56.67;;;28.70;51.30;;;;;;5089135;28;20027;-76
2021/03/17 14:45:26;;;;;;;24.30;21.75;;;28.70;51.20;;;;;;5083548;28;20016;-74